IRACE LIRQ-ENCN
Flight info
| Callsign | IRACE |
|---|---|
| Flight time | N/A |
| Altitude | 43000 |
| Route | OKMAP DCT EKPEB DCT BRENO M726 ERNAS Y101 AMOSA DCT KATCE DCT KEGAB DCT ATTUS P992 BAVTA/N0483F410 M609 RASVI |
| Aircraft | C700/M-SBDGHM1RWXY/LB2 |
Departure
| Time | N/A |
|---|---|
| Airport | Florence Airport, Peretola (LIRQ) |
Arrival
| Time | 2026-04-18 10:31 |
|---|---|
| Airport | Kristiansand Airport (ENCN) |
| Time | Latitude | Longitude | Altitude | Speed | Heading |
|---|---|---|---|---|---|
| 2026-04-18 10:15 | 57.00066 | 8.09399 | 34472 ft | 481 kts | 350° |
| 2026-04-18 10:15 | 57.03407 | 8.08887 | 32837 ft | 484 kts | 350° |
| 2026-04-18 10:16 | 57.06771 | 8.08371 | 31173 ft | 485 kts | 351° |
| 2026-04-18 10:16 | 57.10135 | 8.07856 | 29347 ft | 487 kts | 351° |
| 2026-04-18 10:16 | 57.13473 | 8.07348 | 28139 ft | 474 kts | 352° |
| 2026-04-18 10:16 | 57.16724 | 8.06851 | 26800 ft | 464 kts | 352° |
| 2026-04-18 10:17 | 57.19912 | 8.06352 | 25515 ft | 456 kts | 352° |
| 2026-04-18 10:17 | 57.23043 | 8.05865 | 24315 ft | 448 kts | 353° |
| 2026-04-18 10:17 | 57.26123 | 8.05390 | 23018 ft | 440 kts | 353° |
| 2026-04-18 10:17 | 57.29155 | 8.05274 | 21725 ft | 434 kts | 2° |
| 2026-04-18 10:18 | 57.32111 | 8.06081 | 20509 ft | 426 kts | 10° |
| 2026-04-18 10:18 | 57.34988 | 8.07159 | 19362 ft | 419 kts | 11° |
| 2026-04-18 10:18 | 57.37828 | 8.08198 | 18211 ft | 411 kts | 11° |
| 2026-04-18 10:18 | 57.40602 | 8.09211 | 17090 ft | 402 kts | 11° |
| 2026-04-18 10:19 | 57.43259 | 8.10188 | 16664 ft | 377 kts | 11° |
| 2026-04-18 10:19 | 57.45763 | 8.11114 | 16206 ft | 358 kts | 11° |
| 2026-04-18 10:19 | 57.48152 | 8.11994 | 15762 ft | 342 kts | 11° |
| 2026-04-18 10:19 | 57.50439 | 8.12839 | 15334 ft | 329 kts | 11° |
| 2026-04-18 10:20 | 57.52622 | 8.13645 | 14922 ft | 320 kts | 11° |
| 2026-04-18 10:20 | 57.54796 | 8.14449 | 14508 ft | 318 kts | 11° |
| 2026-04-18 10:20 | 57.56963 | 8.15253 | 14086 ft | 317 kts | 11° |
| 2026-04-18 10:20 | 57.59125 | 8.16053 | 13645 ft | 316 kts | 11° |
| 2026-04-18 10:21 | 57.61291 | 8.16505 | 13226 ft | 312 kts | 359° |
| 2026-04-18 10:21 | 57.63450 | 8.16440 | 12822 ft | 308 kts | 359° |
| 2026-04-18 10:21 | 57.65588 | 8.16495 | 12419 ft | 307 kts | 0° |
| 2026-04-18 10:21 | 57.67718 | 8.16547 | 12017 ft | 306 kts | 360° |
| 2026-04-18 10:22 | 57.69841 | 8.16554 | 11613 ft | 305 kts | 359° |
| 2026-04-18 10:22 | 57.71957 | 8.16565 | 11213 ft | 303 kts | 360° |
| 2026-04-18 10:22 | 57.74056 | 8.16586 | 10819 ft | 301 kts | 360° |
| 2026-04-18 10:22 | 57.76139 | 8.16606 | 10421 ft | 298 kts | 0° |
| 2026-04-18 10:23 | 57.78203 | 8.16628 | 10033 ft | 295 kts | 0° |
| 2026-04-18 10:23 | 57.80249 | 8.16643 | 9625 ft | 292 kts | 360° |
| 2026-04-18 10:23 | 57.82282 | 8.16664 | 9230 ft | 293 kts | 360° |
| 2026-04-18 10:23 | 57.84322 | 8.16681 | 8826 ft | 294 kts | 360° |
| 2026-04-18 10:24 | 57.86367 | 8.16701 | 8439 ft | 294 kts | 360° |
| 2026-04-18 10:24 | 57.88408 | 8.16692 | 8050 ft | 293 kts | 356° |
| 2026-04-18 10:24 | 57.90391 | 8.15922 | 7658 ft | 290 kts | 339° |
| 2026-04-18 10:24 | 57.92187 | 8.14253 | 7281 ft | 287 kts | 324° |
| 2026-04-18 10:25 | 57.93615 | 8.11951 | 6908 ft | 283 kts | 310° |
| 2026-04-18 10:25 | 57.94781 | 8.09014 | 6552 ft | 278 kts | 301° |
| 2026-04-18 10:25 | 57.95891 | 8.06034 | 6173 ft | 277 kts | 302° |
| 2026-04-18 10:25 | 57.97006 | 8.03084 | 5805 ft | 276 kts | 302° |
| 2026-04-18 10:26 | 57.98093 | 8.00169 | 5447 ft | 275 kts | 302° |
| 2026-04-18 10:26 | 57.99207 | 7.97182 | 5080 ft | 274 kts | 302° |
| 2026-04-18 10:26 | 58.00332 | 7.94402 | 4711 ft | 268 kts | 312° |
| 2026-04-18 10:26 | 58.01299 | 7.92926 | 4474 ft | 263 kts | 324° |
| 2026-04-18 10:27 | 58.03480 | 7.91121 | 4020 ft | 257 kts | 346° |
| 2026-04-18 10:27 | 58.05233 | 7.90803 | 3675 ft | 251 kts | 3° |
| 2026-04-18 10:27 | 58.06930 | 7.91400 | 3352 ft | 248 kts | 19° |
| 2026-04-18 10:27 | 58.07996 | 7.92214 | 3120 ft | 239 kts | 29° |
| 2026-04-18 10:28 | 58.09648 | 7.94285 | 2850 ft | 196 kts | 39° |
| 2026-04-18 10:28 | 58.10356 | 7.95232 | 2651 ft | 176 kts | 38° |
| 2026-04-18 10:28 | 58.11328 | 7.96490 | 2388 ft | 164 kts | 38° |
| 2026-04-18 10:28 | 58.12245 | 7.97736 | 2134 ft | 163 kts | 39° |
| 2026-04-18 10:29 | 58.13176 | 7.98942 | 1888 ft | 161 kts | 38° |
| 2026-04-18 10:29 | 58.14090 | 8.00158 | 1627 ft | 160 kts | 39° |
| 2026-04-18 10:29 | 58.14963 | 8.01308 | 1403 ft | 143 kts | 37° |
| 2026-04-18 10:29 | 58.15763 | 8.02361 | 1167 ft | 138 kts | 39° |
| 2026-04-18 10:30 | 58.16518 | 8.03379 | 977 ft | 134 kts | 39° |
| 2026-04-18 10:30 | 58.17288 | 8.04382 | 683 ft | 139 kts | 37° |
| 2026-04-18 10:30 | 58.18071 | 8.05409 | 421 ft | 135 kts | 37° |
| 2026-04-18 10:30 | 58.18825 | 8.06421 | 335 ft | 136 kts | 38° |
| 2026-04-18 10:31 | 58.19622 | 8.07472 | 121 ft | 140 kts | 38° |
| 2026-04-18 10:31 | 58.20310 | 8.08376 | 55 ft | 65 kts | 60° |
| 2026-04-18 10:31 | 58.20415 | 8.08425 | 54 ft | 20 kts | 292° |
| 2026-04-18 10:31 | 58.20477 | 8.08202 | 50 ft | 15 kts | 274° |
| 2026-04-18 10:32 | 58.20415 | 8.08020 | 52 ft | 19 kts | 230° |
| 2026-04-18 10:32 | 58.20330 | 8.07813 | 52 ft | 21 kts | 232° |
| 2026-04-18 10:32 | 58.20217 | 8.07631 | 49 ft | 15 kts | 210° |
| 2026-04-18 10:32 | 58.20123 | 8.07524 | 51 ft | 17 kts | 212° |
| 2026-04-18 10:33 | 58.20074 | 8.07465 | 52 ft | 6 kts | 219° |
| 2026-04-18 10:33 | 58.20080 | 8.07384 | 50 ft | 8 kts | 303° |
| 2026-04-18 10:33 | 58.20089 | 8.07357 | 52 ft | 0 kts | 302° |